createdAt,value
2023-04-23T00:02:08.141Z,93.10
2023-04-23T00:04:38.081Z,93.20
2023-04-23T00:07:06.843Z,93.00
2023-04-23T00:09:34.472Z,93.10
2023-04-23T00:12:02.104Z,92.80
2023-04-23T00:14:29.129Z,92.90
2023-04-23T00:16:56.100Z,93.00
2023-04-23T00:19:22.900Z,93.00
2023-04-23T00:21:49.722Z,93.10
2023-04-23T00:24:16.477Z,93.20
2023-04-23T00:26:43.227Z,93.30
2023-04-23T00:29:10.141Z,93.50
2023-04-23T00:31:36.959Z,93.70
2023-04-23T00:34:04.024Z,93.70
2023-04-23T00:36:31.132Z,93.90
2023-04-23T00:38:57.956Z,94.10
2023-04-23T00:41:25.590Z,94.50
2023-04-23T00:43:53.201Z,94.60
2023-04-23T00:46:20.602Z,94.60
2023-04-23T00:48:48.262Z,94.90
2023-04-23T00:51:17.520Z,95.10
2023-04-23T00:53:44.243Z,95.00
2023-04-23T00:56:11.697Z,95.10
2023-04-23T00:58:38.776Z,95.50
2023-04-23T01:01:06.217Z,95.70
2023-04-23T01:03:36.389Z,96.00
2023-04-23T01:06:04.300Z,96.10
2023-04-23T01:08:32.209Z,96.30
2023-04-23T01:10:59.734Z,96.50
2023-04-23T01:13:29.629Z,96.60
2023-04-23T01:15:57.340Z,96.90
2023-04-23T01:18:24.337Z,96.90
2023-04-23T01:20:51.502Z,97.10
2023-04-23T01:23:18.604Z,97.20
2023-04-23T01:25:45.909Z,97.10
2023-04-23T01:28:13.151Z,97.20
2023-04-23T01:30:43.179Z,97.20
2023-04-23T01:33:11.108Z,97.40
2023-04-23T01:35:39.053Z,97.40
2023-04-23T01:38:09.387Z,97.50
2023-04-23T01:40:36.644Z,97.20
2023-04-23T01:43:04.806Z,97.40
2023-04-23T01:45:31.886Z,97.50
2023-04-23T01:48:00.370Z,97.40
2023-04-23T01:50:29.118Z,97.50
2023-04-23T01:52:56.041Z,97.50
2023-04-23T01:55:26.132Z,97.50
2023-04-23T01:57:52.902Z,97.60
2023-04-23T02:00:20.734Z,97.60
2023-04-23T02:02:48.144Z,97.80
2023-04-23T02:05:18.473Z,97.90
2023-04-23T02:07:50.682Z,98.00
2023-04-23T02:10:18.620Z,98.20
2023-04-23T02:12:45.782Z,98.40
2023-04-23T02:15:13.396Z,98.60
2023-04-23T02:17:40.243Z,98.70
2023-04-23T02:20:10.679Z,99.00
2023-04-23T02:22:41.942Z,99.10
2023-04-23T02:25:09.532Z,99.40
2023-04-23T02:27:36.836Z,99.60
2023-04-23T02:30:04.450Z,99.60
2023-04-23T02:32:31.396Z,99.50
2023-04-23T02:34:59.693Z,99.90
2023-04-23T02:37:27.031Z,99.90
2023-04-23T02:39:54.231Z,99.90
2023-04-23T02:42:21.028Z,99.90
2023-04-23T02:44:47.901Z,99.90
2023-04-23T02:47:14.654Z,99.90
2023-04-23T02:49:41.393Z,99.90
2023-04-23T02:52:08.445Z,99.90
2023-04-23T02:54:36.986Z,99.90
2023-04-23T02:57:04.801Z,99.90
2023-04-23T02:59:31.607Z,99.90
2023-04-23T03:01:58.416Z,99.90
2023-04-23T03:04:25.187Z,99.90
2023-04-23T03:06:51.880Z,99.90
2023-04-23T03:09:18.709Z,99.90
2023-04-23T03:11:45.524Z,99.90
2023-04-23T03:14:12.231Z,99.90
2023-04-23T03:16:38.929Z,99.90
2023-04-23T03:19:05.806Z,99.90
2023-04-23T03:21:32.596Z,99.90
2023-04-23T03:23:59.316Z,99.90
2023-04-23T03:26:26.114Z,99.90
2023-04-23T03:28:53.817Z,99.90
2023-04-23T03:31:20.877Z,99.90
2023-04-23T03:33:47.697Z,99.90
2023-04-23T03:36:15.593Z,99.90
2023-04-23T03:38:42.423Z,99.90
2023-04-23T03:41:09.081Z,99.90
2023-04-23T03:43:35.898Z,99.90
2023-04-23T03:46:02.667Z,99.90
2023-04-23T03:48:29.424Z,99.90
2023-04-23T03:50:56.173Z,99.90
2023-04-23T03:53:22.925Z,99.90
2023-04-23T03:55:49.683Z,99.90
2023-04-23T03:58:17.331Z,99.90
2023-04-23T04:00:44.163Z,99.90
2023-04-23T04:03:11.057Z,99.90
2023-04-23T04:05:37.810Z,99.90
2023-04-23T04:08:05.149Z,99.90
2023-04-23T04:10:31.903Z,99.90
2023-04-23T04:12:58.673Z,99.90
2023-04-23T04:15:25.641Z,99.90
2023-04-23T04:17:52.395Z,99.90
2023-04-23T04:20:19.507Z,99.90
2023-04-23T04:22:46.810Z,99.90
2023-04-23T04:25:14.205Z,99.90
2023-04-23T04:27:41.566Z,99.90
2023-04-23T04:30:09.542Z,99.90
2023-04-23T04:32:38.826Z,99.90
2023-04-23T04:35:06.771Z,99.90
2023-04-23T04:37:33.696Z,99.90
2023-04-23T04:40:01.471Z,99.90
2023-04-23T04:42:28.250Z,99.90
2023-04-23T04:44:54.932Z,99.90
2023-04-23T04:47:21.771Z,99.90
2023-04-23T04:49:48.857Z,99.90
2023-04-23T04:52:15.714Z,99.90
2023-04-23T04:54:42.811Z,99.90
2023-04-23T04:57:09.743Z,99.90
2023-04-23T04:59:36.850Z,99.90
2023-04-23T05:02:03.766Z,99.90
2023-04-23T05:04:30.793Z,99.90
2023-04-23T05:06:57.519Z,99.90
2023-04-23T05:09:25.280Z,99.90
2023-04-23T05:11:52.127Z,99.90
2023-04-23T05:14:18.789Z,99.90
2023-04-23T05:16:45.640Z,99.90
2023-04-23T05:19:12.489Z,99.90
2023-04-23T05:21:39.632Z,99.90
2023-04-23T05:24:06.421Z,99.90
2023-04-23T05:26:33.200Z,99.90
2023-04-23T05:29:00.000Z,99.90
2023-04-23T05:31:29.238Z,99.90
2023-04-23T05:33:56.266Z,99.90
2023-04-23T05:36:22.979Z,99.90
2023-04-23T05:38:49.756Z,99.90
2023-04-23T05:41:16.567Z,99.90
2023-04-23T05:43:43.460Z,99.90
2023-04-23T05:46:10.252Z,99.90
2023-04-23T05:48:37.030Z,99.90
2023-04-23T05:51:03.918Z,99.90
2023-04-23T05:53:30.619Z,99.90
2023-04-23T05:55:57.356Z,99.90
2023-04-23T05:58:24.059Z,99.90
2023-04-23T06:00:52.913Z,99.90
2023-04-23T06:03:20.136Z,99.90
2023-04-23T06:05:47.238Z,99.90
2023-04-23T06:08:14.004Z,99.90
2023-04-23T06:10:40.831Z,99.90
2023-04-23T06:13:07.788Z,99.90
2023-04-23T06:15:34.558Z,99.90
2023-04-23T06:18:01.378Z,99.90
2023-04-23T06:20:28.146Z,99.90
2023-04-23T06:22:54.900Z,99.90
2023-04-23T06:25:21.608Z,99.90
2023-04-23T06:27:48.299Z,99.90
2023-04-23T06:30:15.077Z,99.90
2023-04-23T06:32:41.838Z,99.90
2023-04-23T06:35:09.229Z,99.90
2023-04-23T06:37:36.183Z,99.90
2023-04-23T06:40:03.085Z,99.90
2023-04-23T06:42:29.832Z,99.90
2023-04-23T06:44:59.242Z,99.90
2023-04-23T06:47:26.163Z,99.90
2023-04-23T06:49:52.944Z,99.90
2023-04-23T06:52:19.655Z,99.90
2023-04-23T06:54:46.456Z,99.90
2023-04-23T06:57:13.227Z,99.90
2023-04-23T06:59:39.932Z,99.90
2023-04-23T07:02:07.300Z,99.90
2023-04-23T07:04:34.140Z,99.90
2023-04-23T07:07:00.825Z,99.90
2023-04-23T07:09:28.694Z,99.90
2023-04-23T07:11:55.673Z,99.90
2023-04-23T07:14:22.517Z,99.90
2023-04-23T07:16:49.198Z,99.90
2023-04-23T07:19:16.075Z,99.90
2023-04-23T07:21:42.852Z,99.90
2023-04-23T07:24:09.686Z,99.90
2023-04-23T07:26:36.848Z,99.90
2023-04-23T07:29:06.706Z,99.90
2023-04-23T07:31:34.159Z,99.90
2023-04-23T07:34:01.419Z,99.90
2023-04-23T07:36:28.500Z,99.90
2023-04-23T07:38:55.380Z,99.90
2023-04-23T07:41:22.241Z,99.90
2023-04-23T07:43:49.101Z,99.90
2023-04-23T07:46:16.051Z,99.90
2023-04-23T07:48:42.915Z,99.90
2023-04-23T07:51:09.816Z,99.90
2023-04-23T07:53:36.583Z,99.90
2023-04-23T07:56:03.349Z,99.90
2023-04-23T07:58:30.179Z,99.90
2023-04-23T08:00:57.157Z,99.90
2023-04-23T08:03:24.374Z,99.90
2023-04-23T08:05:51.259Z,99.90
2023-04-23T08:08:18.077Z,99.90
2023-04-23T08:10:45.877Z,99.90
2023-04-23T08:13:12.715Z,99.90
2023-04-23T08:15:39.696Z,99.90
2023-04-23T08:18:06.721Z,99.90
2023-04-23T08:20:34.219Z,99.90
2023-04-23T08:23:01.047Z,99.90
2023-04-23T08:25:27.847Z,99.90
2023-04-23T08:27:54.536Z,99.90
2023-04-23T08:30:21.433Z,99.90
2023-04-23T08:32:51.525Z,99.90
2023-04-23T08:35:18.468Z,99.90
2023-04-23T08:37:45.628Z,99.90
2023-04-23T08:40:13.213Z,99.90
2023-04-23T08:42:49.605Z,99.90
2023-04-23T08:45:16.436Z,99.90
2023-04-23T08:47:43.725Z,99.90
2023-04-23T08:50:12.907Z,99.90
2023-04-23T08:52:44.969Z,99.90
2023-04-23T08:55:12.461Z,99.90
2023-04-23T08:57:40.696Z,99.90
2023-04-23T09:00:10.979Z,99.90
2023-04-23T09:02:41.381Z,99.90
2023-04-23T09:05:08.956Z,99.90
2023-04-23T09:07:36.944Z,99.90
2023-04-23T09:10:06.080Z,99.90
2023-04-23T09:12:37.410Z,99.90
2023-04-23T09:15:10.689Z,99.90
2023-04-23T09:17:46.048Z,99.90
2023-04-23T09:20:15.244Z,99.90
2023-04-23T09:22:47.326Z,99.90
2023-04-23T09:25:17.478Z,99.70
2023-04-23T09:27:45.244Z,99.40
2023-04-23T09:30:12.973Z,99.40
2023-04-23T09:32:42.070Z,99.30
2023-04-23T09:35:12.205Z,98.80
2023-04-23T09:37:42.854Z,98.60
2023-04-23T09:40:13.350Z,98.00
2023-04-23T09:42:40.141Z,97.50
2023-04-23T09:45:12.087Z,97.10
2023-04-23T09:47:40.258Z,96.80
2023-04-23T09:50:10.430Z,97.30
2023-04-23T09:52:41.190Z,97.60
2023-04-23T09:55:08.593Z,97.80
2023-04-23T09:57:41.989Z,97.20
2023-04-23T10:00:21.616Z,96.70
2023-04-23T10:02:50.555Z,96.50
2023-04-23T10:05:24.757Z,96.80
2023-04-23T10:07:57.087Z,96.50
2023-04-23T10:10:24.892Z,95.70
2023-04-23T10:12:57.316Z,95.30
2023-04-23T10:15:26.961Z,95.30
2023-04-23T10:17:55.701Z,95.30
2023-04-23T10:20:28.950Z,95.40
2023-04-23T10:22:57.512Z,95.30
2023-04-23T10:25:25.624Z,94.90
2023-04-23T10:27:55.120Z,95.10
2023-04-23T10:30:23.926Z,95.50
2023-04-23T10:32:52.868Z,95.50
2023-04-23T10:35:19.680Z,95.10
2023-04-23T10:37:48.160Z,95.20
2023-04-23T10:40:21.952Z,94.80
2023-04-23T10:42:49.648Z,94.30
2023-04-23T10:47:49.393Z,93.60
2023-04-23T10:50:19.833Z,93.70
2023-04-23T10:52:51.325Z,94.30
2023-04-23T10:55:23.584Z,94.40
2023-04-23T10:58:02.947Z,94.40
2023-04-23T11:00:48.542Z,93.80
2023-04-23T11:03:44.359Z,93.40
2023-04-23T11:06:19.845Z,93.20
2023-04-23T11:08:54.106Z,93.00
2023-04-23T11:11:39.954Z,93.00
2023-04-23T11:14:16.381Z,93.30
2023-04-23T11:16:43.354Z,92.80
2023-04-23T11:19:17.282Z,92.60
2023-04-23T11:22:21.661Z,93.10
2023-04-23T11:24:50.863Z,92.90
2023-04-23T11:27:19.715Z,92.30
2023-04-23T11:29:47.898Z,92.30
2023-04-23T11:32:17.129Z,92.60
2023-04-23T11:34:45.817Z,92.50
2023-04-23T11:37:17.062Z,91.80
2023-04-23T11:39:45.921Z,91.90
2023-04-23T11:42:14.440Z,91.50
2023-04-23T11:44:42.863Z,88.40
2023-04-23T11:47:11.405Z,88.70
2023-04-23T11:49:39.148Z,89.70
2023-04-23T11:52:06.012Z,90.40
2023-04-23T11:54:34.379Z,90.20
2023-04-23T11:57:03.081Z,90.10
2023-04-23T11:59:30.505Z,90.30
2023-04-23T12:01:59.614Z,90.00
2023-04-23T12:04:31.094Z,89.50
2023-04-23T12:06:59.138Z,89.10
2023-04-23T12:09:30.028Z,87.50
2023-04-23T12:11:58.674Z,87.50
2023-04-23T12:14:30.708Z,87.90
2023-04-23T12:16:58.793Z,87.80
2023-04-23T12:19:30.196Z,88.40
2023-04-23T12:21:58.275Z,86.90
2023-04-23T12:24:30.135Z,86.60
2023-04-23T12:27:00.962Z,86.20
2023-04-23T12:29:30.504Z,86.80
2023-04-23T12:31:59.837Z,85.80
2023-04-23T12:34:26.735Z,86.30
2023-04-23T12:36:56.863Z,85.80
2023-04-23T12:39:34.491Z,85.50
2023-04-23T12:42:02.914Z,86.30
2023-04-23T12:44:30.630Z,86.20
2023-04-23T12:47:03.580Z,85.80
2023-04-23T12:49:31.172Z,87.00
2023-04-23T12:52:02.634Z,85.60
2023-04-23T12:54:37.192Z,85.20
2023-04-23T12:57:05.757Z,84.50
2023-04-23T12:59:33.311Z,83.40
2023-04-23T13:02:02.458Z,82.60
2023-04-23T13:04:31.564Z,81.60
2023-04-23T13:06:58.401Z,80.30
2023-04-23T13:09:27.788Z,78.60
2023-04-23T13:11:55.396Z,79.20
2023-04-23T13:14:22.440Z,80.20
2023-04-23T13:16:50.724Z,81.30
2023-04-23T13:19:17.832Z,78.70
2023-04-23T13:21:45.192Z,78.50
2023-04-23T13:24:12.033Z,79.20
2023-04-23T13:26:38.945Z,80.60
2023-04-23T13:29:06.460Z,79.50
2023-04-23T13:31:33.420Z,79.70
2023-04-23T13:34:01.516Z,79.40
2023-04-23T13:36:28.474Z,80.70
2023-04-23T13:38:55.430Z,80.70
2023-04-23T13:41:22.238Z,79.50
2023-04-23T13:43:49.044Z,77.40
2023-04-23T13:46:16.821Z,76.50
2023-04-23T13:48:43.639Z,77.30
2023-04-23T13:51:21.819Z,75.20
2023-04-23T13:53:54.025Z,71.80
2023-04-23T13:56:20.894Z,72.30
2023-04-23T13:58:49.003Z,73.00
2023-04-23T14:01:16.088Z,70.80
2023-04-23T14:03:42.963Z,70.40
2023-04-23T14:06:09.732Z,71.30
2023-04-23T14:08:37.192Z,70.10
2023-04-23T14:11:04.513Z,67.30
2023-04-23T14:13:32.164Z,66.60
2023-04-23T14:16:00.734Z,67.40
2023-04-23T14:18:29.865Z,66.70
2023-04-23T14:20:56.763Z,65.50
2023-04-23T14:23:23.487Z,65.80
2023-04-23T14:26:04.597Z,65.10
2023-04-23T14:28:39.018Z,64.50
2023-04-23T14:31:07.000Z,63.10
2023-04-23T14:33:33.856Z,63.10
2023-04-23T14:36:00.674Z,63.70
2023-04-23T14:38:27.602Z,62.50
2023-04-23T14:40:55.160Z,61.10
2023-04-23T14:43:21.921Z,59.70
2023-04-23T14:45:48.806Z,60.50
2023-04-23T14:48:15.740Z,60.40
2023-04-23T14:50:42.435Z,59.40
2023-04-23T14:53:10.610Z,60.00
2023-04-23T14:55:38.771Z,60.90
2023-04-23T14:58:06.350Z,61.10
2023-04-23T15:00:33.918Z,61.10
2023-04-23T15:03:02.792Z,61.40
2023-04-23T15:05:29.815Z,62.00
2023-04-23T15:07:56.563Z,62.10
2023-04-23T15:10:23.792Z,62.50
2023-04-23T15:12:53.482Z,62.80
2023-04-23T15:15:36.965Z,63.40
2023-04-23T15:18:05.424Z,63.30
2023-04-23T15:20:32.350Z,66.40
2023-04-23T15:22:59.244Z,70.60
2023-04-23T15:25:26.031Z,73.20
2023-04-23T15:27:57.792Z,74.60
2023-04-23T15:30:26.214Z,76.40
2023-04-23T15:32:57.617Z,79.40
2023-04-23T15:35:25.838Z,79.70
2023-04-23T15:37:53.699Z,79.90
2023-04-23T15:40:20.533Z,80.50
2023-04-23T15:42:49.446Z,79.80
2023-04-23T15:45:16.983Z,79.70
2023-04-23T15:47:43.851Z,78.30
2023-04-23T15:50:11.692Z,77.50
2023-04-23T15:52:39.369Z,81.50
2023-04-23T15:55:06.809Z,85.70
2023-04-23T15:57:33.661Z,86.60
2023-04-23T16:00:01.379Z,88.30
2023-04-23T16:02:29.016Z,90.30
2023-04-23T16:04:56.220Z,91.10
2023-04-23T16:07:23.035Z,93.30
2023-04-23T16:09:49.863Z,93.90
2023-04-23T16:12:16.711Z,95.90
2023-04-23T16:14:43.741Z,97.60
2023-04-23T16:17:10.753Z,98.60
2023-04-23T16:19:37.836Z,99.20
2023-04-23T16:22:04.649Z,99.20
2023-04-23T16:24:31.548Z,99.80
2023-04-23T16:26:58.482Z,99.00
2023-04-23T16:29:25.371Z,99.10
2023-04-23T16:31:52.179Z,99.80
2023-04-23T16:34:18.913Z,99.10
2023-04-23T16:36:45.734Z,97.30
2023-04-23T16:39:12.542Z,96.70
2023-04-23T16:41:39.301Z,95.80
2023-04-23T16:44:06.233Z,96.40
2023-04-23T16:46:33.583Z,97.60
2023-04-23T16:49:00.437Z,99.00
2023-04-23T16:51:28.777Z,99.90
2023-04-23T16:53:57.043Z,99.90
2023-04-23T16:56:24.065Z,99.90
2023-04-23T16:58:50.974Z,99.90
2023-04-23T17:01:17.971Z,99.90
2023-04-23T17:03:45.910Z,99.90
2023-04-23T17:06:20.293Z,99.90
2023-04-23T17:08:47.424Z,99.90
2023-04-23T17:11:14.547Z,99.90
2023-04-23T17:13:43.694Z,99.90
2023-04-23T17:16:10.962Z,99.90
2023-04-23T17:18:37.819Z,99.90
2023-04-23T17:21:04.853Z,99.90
2023-04-23T17:23:31.814Z,99.90
2023-04-23T17:25:58.568Z,99.90
2023-04-23T17:28:25.638Z,99.90
2023-04-23T17:30:53.905Z,99.90
2023-04-23T17:33:21.377Z,99.90
2023-04-23T17:35:53.752Z,99.90
2023-04-23T17:38:20.921Z,99.90
2023-04-23T17:40:52.632Z,99.90
2023-04-23T17:43:20.815Z,99.90
2023-04-23T17:45:48.133Z,99.90
2023-04-23T17:48:15.691Z,99.90
2023-04-23T17:50:43.235Z,99.90
2023-04-23T17:53:12.658Z,99.90
2023-04-23T17:55:39.473Z,99.90
2023-04-23T17:58:06.639Z,99.90
2023-04-23T18:00:37.555Z,99.90
2023-04-23T18:03:05.176Z,99.90
2023-04-23T18:05:32.351Z,99.90
2023-04-23T18:07:59.639Z,99.90
2023-04-23T18:10:26.947Z,99.90
2023-04-23T18:12:54.093Z,99.90
2023-04-23T18:15:21.272Z,99.90
2023-04-23T18:17:48.427Z,99.90
2023-04-23T18:20:16.562Z,99.90
2023-04-23T18:22:44.354Z,99.90
2023-04-23T18:25:11.678Z,99.90
2023-04-23T18:27:39.220Z,99.90
2023-04-23T18:30:23.422Z,99.90
2023-04-23T18:33:02.809Z,99.90
2023-04-23T18:35:29.958Z,99.90
2023-04-23T18:38:11.834Z,99.90
2023-04-23T18:40:38.921Z,99.90
2023-04-23T18:43:06.318Z,99.90
2023-04-23T18:45:33.615Z,99.90
2023-04-23T18:48:21.397Z,99.90
2023-04-23T18:50:55.259Z,99.90
2023-04-23T18:53:22.520Z,99.90
2023-04-23T18:55:49.645Z,99.90
2023-04-23T18:58:16.776Z,99.90
2023-04-23T19:00:44.002Z,99.90
2023-04-23T19:03:25.713Z,99.90
2023-04-23T19:05:54.153Z,99.90
2023-04-23T19:08:22.869Z,99.90
2023-04-23T19:10:50.163Z,99.90
2023-04-23T19:13:19.066Z,99.90
2023-04-23T19:15:46.411Z,99.90
2023-04-23T19:18:13.842Z,99.90
2023-04-23T19:20:40.984Z,99.90
2023-04-23T19:23:09.387Z,99.90
2023-04-23T19:25:37.104Z,99.90
2023-04-23T19:28:04.783Z,99.90
2023-04-23T19:30:32.820Z,99.90
2023-04-23T19:33:00.419Z,99.90
2023-04-23T19:35:28.181Z,99.90
2023-04-23T19:37:55.380Z,99.90
2023-04-23T19:40:23.859Z,99.90
2023-04-23T19:42:51.232Z,99.90
2023-04-23T19:45:21.954Z,99.90
2023-04-23T19:47:49.309Z,99.90
2023-04-23T19:50:16.858Z,99.90
2023-04-23T19:52:44.062Z,99.90
2023-04-23T19:55:11.714Z,99.90
2023-04-23T19:57:38.906Z,99.90
2023-04-23T20:00:14.181Z,99.90
2023-04-23T20:02:41.873Z,99.90
2023-04-23T20:05:12.400Z,99.90
2023-04-23T20:07:39.943Z,99.90
2023-04-23T20:10:07.821Z,99.90
2023-04-23T20:12:35.286Z,99.90
2023-04-23T20:15:02.534Z,99.90
2023-04-23T20:17:33.003Z,99.90
2023-04-23T20:20:02.119Z,99.90
2023-04-23T20:22:33.168Z,99.90
2023-04-23T20:25:02.075Z,99.90
2023-04-23T20:27:35.499Z,99.90
2023-04-23T20:30:05.024Z,99.90
2023-04-23T20:32:31.973Z,99.90
2023-04-23T20:35:07.984Z,99.90
2023-04-23T20:37:34.954Z,99.90
2023-04-23T20:40:04.689Z,99.90
2023-04-23T20:42:32.092Z,99.90
2023-04-23T20:44:58.994Z,99.90
2023-04-23T20:47:27.942Z,99.90
2023-04-23T20:49:57.764Z,99.90
2023-04-23T20:52:32.044Z,99.90
2023-04-23T20:55:03.672Z,99.90
2023-04-23T20:57:32.909Z,99.90
2023-04-23T20:59:59.781Z,99.90
2023-04-23T21:02:27.062Z,99.90
2023-04-23T21:04:53.867Z,99.90
2023-04-23T21:07:20.645Z,99.90
2023-04-23T21:09:47.492Z,99.90
2023-04-23T21:12:14.749Z,99.90
2023-04-23T21:14:41.696Z,99.90
2023-04-23T21:17:09.496Z,99.90
2023-04-23T21:19:36.421Z,99.90
2023-04-23T21:22:03.578Z,99.90
2023-04-23T21:24:30.450Z,99.90
2023-04-23T21:26:57.310Z,99.90
2023-04-23T21:29:25.896Z,99.90
2023-04-23T21:31:53.135Z,99.90
2023-04-23T21:34:21.307Z,99.90
2023-04-23T21:36:49.805Z,99.90
2023-04-23T21:39:16.669Z,99.90
2023-04-23T21:41:44.825Z,99.90
2023-04-23T21:44:11.639Z,99.90
2023-04-23T21:46:38.684Z,99.90
2023-04-23T21:49:05.726Z,99.90
2023-04-23T21:51:36.770Z,99.90
2023-04-23T21:54:05.668Z,99.90
2023-04-23T21:56:33.127Z,99.90
2023-04-23T21:59:00.037Z,99.90
2023-04-23T22:01:26.876Z,99.90
2023-04-23T22:03:53.784Z,99.90
2023-04-23T22:06:21.264Z,99.90
2023-04-23T22:08:48.215Z,99.90
2023-04-23T22:11:15.087Z,99.90
2023-04-23T22:13:41.917Z,99.90
2023-04-23T22:16:24.442Z,99.90
2023-04-23T22:18:54.250Z,99.90
2023-04-23T22:21:21.206Z,99.90
2023-04-23T22:23:48.181Z,99.90
2023-04-23T22:26:15.042Z,99.90
2023-04-23T22:28:43.425Z,99.90
2023-04-23T22:31:10.604Z,99.90
2023-04-23T22:33:37.650Z,99.90
2023-04-23T22:36:05.328Z,99.90
2023-04-23T22:38:32.589Z,99.90
2023-04-23T22:40:59.732Z,99.90
2023-04-23T22:43:26.557Z,99.90
2023-04-23T22:45:53.503Z,99.90
2023-04-23T22:48:21.346Z,99.90
2023-04-23T22:50:50.946Z,99.90
2023-04-23T22:53:19.422Z,99.90
2023-04-23T22:55:46.956Z,99.90
2023-04-23T22:58:13.716Z,99.90
2023-04-23T23:00:40.648Z,99.90
2023-04-23T23:03:08.395Z,99.90
2023-04-23T23:05:35.463Z,99.90
2023-04-23T23:08:02.403Z,99.90
2023-04-23T23:10:29.682Z,99.90
2023-04-23T23:12:56.755Z,99.90
2023-04-23T23:15:23.550Z,99.90
2023-04-23T23:17:51.150Z,99.90
2023-04-23T23:20:18.304Z,99.90
2023-04-23T23:22:45.305Z,99.90
2023-04-23T23:25:12.110Z,99.90
2023-04-23T23:27:38.878Z,99.90
2023-04-23T23:30:07.605Z,99.90
2023-04-23T23:32:34.429Z,99.90
2023-04-23T23:35:01.418Z,99.90
2023-04-23T23:37:28.266Z,99.90
2023-04-23T23:39:55.595Z,99.90
2023-04-23T23:42:22.465Z,99.90
2023-04-23T23:44:49.252Z,99.90
2023-04-23T23:47:16.428Z,99.90
2023-04-23T23:49:43.548Z,99.90
2023-04-23T23:52:10.754Z,99.90
2023-04-23T23:54:37.468Z,99.90
2023-04-23T23:57:04.272Z,99.90
2023-04-23T23:59:31.093Z,99.90
